createdAt,value
2019-04-10T00:00:06.451Z,94.80
2019-04-10T00:02:33.378Z,94.80
2019-04-10T00:05:01.198Z,95.00
2019-04-10T00:07:27.157Z,95.10
2019-04-10T00:09:55.126Z,94.90
2019-04-10T00:12:21.275Z,95.30
2019-04-10T00:14:48.376Z,95.70
2019-04-10T00:17:15.075Z,95.60
2019-04-10T00:19:42.148Z,95.90
2019-04-10T00:22:09.708Z,96.00
2019-04-10T00:24:36.041Z,95.80
2019-04-10T00:27:04.036Z,96.10
2019-04-10T00:29:30.022Z,95.90
2019-04-10T00:31:56.868Z,96.10
2019-04-10T00:34:23.801Z,96.50
2019-04-10T00:36:51.291Z,96.70
2019-04-10T00:39:18.072Z,96.50
2019-04-10T00:41:44.644Z,96.20
2019-04-10T00:44:11.572Z,96.00
2019-04-10T00:46:38.536Z,96.20
2019-04-10T00:49:05.470Z,96.30
2019-04-10T00:51:33.152Z,96.50
2019-04-10T00:53:59.393Z,96.90
2019-04-10T00:56:26.358Z,96.80
2019-04-10T00:58:53.485Z,96.50
2019-04-10T01:01:21.491Z,96.70
2019-04-10T01:03:49.010Z,96.80
2019-04-10T01:06:15.659Z,96.70
2019-04-10T01:08:42.626Z,96.00
2019-04-10T01:11:08.628Z,96.20
2019-04-10T01:13:35.333Z,96.50
2019-04-10T01:16:02.795Z,96.20
2019-04-10T01:18:29.512Z,96.50
2019-04-10T01:20:56.440Z,97.30
2019-04-10T01:23:23.391Z,97.00
2019-04-10T01:25:50.579Z,96.80
2019-04-10T01:28:17.445Z,96.30
2019-04-10T01:30:44.216Z,96.40
2019-04-10T01:33:11.152Z,96.50
2019-04-10T01:35:38.351Z,96.80
2019-04-10T01:38:06.466Z,97.00
2019-04-10T01:40:32.041Z,97.00
2019-04-10T01:43:06.687Z,96.90
2019-04-10T01:45:25.867Z,96.60
2019-04-10T01:47:53.291Z,96.50
2019-04-10T01:50:20.074Z,96.70
2019-04-10T01:52:47.141Z,95.80
2019-04-10T01:55:20.096Z,95.80
2019-04-10T01:57:40.735Z,95.30
2019-04-10T02:00:09.033Z,95.20
2019-04-10T02:02:47.644Z,95.20
2019-04-10T02:05:14.466Z,94.50
2019-04-10T02:07:40.936Z,94.80
2019-04-10T02:10:07.976Z,95.20
2019-04-10T02:12:34.824Z,95.30
2019-04-10T02:15:02.947Z,95.50
2019-04-10T02:17:28.713Z,95.30
2019-04-10T02:19:56.706Z,95.50
2019-04-10T02:22:22.615Z,96.30
2019-04-10T02:24:49.529Z,96.00
2019-04-10T02:27:16.480Z,95.40
2019-04-10T02:29:43.975Z,96.20
2019-04-10T02:32:10.422Z,96.10
2019-04-10T02:34:39.150Z,95.60
2019-04-10T02:37:04.312Z,95.40
2019-04-10T02:39:38.185Z,95.30
2019-04-10T02:41:58.401Z,94.90
2019-04-10T02:44:27.967Z,95.30
2019-04-10T02:46:54.870Z,95.10
2019-04-10T02:49:20.249Z,94.80
2019-04-10T02:51:47.431Z,94.40
2019-04-10T02:54:13.701Z,94.50
2019-04-10T02:56:40.993Z,94.30
2019-04-10T02:59:07.369Z,94.10
2019-04-10T03:01:35.592Z,94.20
2019-04-10T03:04:03.425Z,94.40
2019-04-10T03:06:29.399Z,94.30
2019-04-10T03:09:10.831Z,93.90
2019-04-10T03:11:24.316Z,94.20
2019-04-10T03:13:51.183Z,94.20
2019-04-10T03:16:17.705Z,94.00
2019-04-10T03:18:43.916Z,94.20
2019-04-10T03:21:10.984Z,93.80
2019-04-10T03:23:37.836Z,94.30
2019-04-10T03:26:05.582Z,94.20
2019-04-10T03:28:32.139Z,94.80
2019-04-10T03:31:00.682Z,94.60
2019-04-10T03:33:33.010Z,94.30
2019-04-10T03:35:57.463Z,94.30
2019-04-10T03:38:24.413Z,94.60
2019-04-10T03:40:51.524Z,94.70
2019-04-10T03:43:19.377Z,94.60
2019-04-10T03:45:45.268Z,95.10
2019-04-10T03:48:12.259Z,95.20
2019-04-10T03:50:39.605Z,95.00
2019-04-10T03:53:06.119Z,95.40
2019-04-10T03:55:34.758Z,95.40
2019-04-10T03:58:00.814Z,95.10
2019-04-10T04:00:27.875Z,95.40
2019-04-10T04:02:54.640Z,95.20
2019-04-10T04:05:22.414Z,95.10
2019-04-10T04:07:48.601Z,95.00
2019-04-10T04:10:16.245Z,95.30
2019-04-10T04:12:42.600Z,94.80
2019-04-10T04:15:09.561Z,95.20
2019-04-10T04:17:36.415Z,95.20
2019-04-10T04:20:04.347Z,94.70
2019-04-10T04:22:31.144Z,94.60
2019-04-10T04:24:58.208Z,94.90
2019-04-10T04:27:25.090Z,94.90
2019-04-10T04:29:51.994Z,95.00
2019-04-10T04:32:19.653Z,95.20
2019-04-10T04:34:45.920Z,95.20
2019-04-10T04:37:12.890Z,95.50
2019-04-10T04:39:39.864Z,95.60
2019-04-10T04:42:07.126Z,95.60
2019-04-10T04:44:33.748Z,95.30
2019-04-10T04:47:01.193Z,95.40
2019-04-10T04:49:28.399Z,95.80
2019-04-10T04:51:54.697Z,96.20
2019-04-10T04:54:21.530Z,96.20
2019-04-10T04:56:48.477Z,96.00
2019-04-10T04:59:16.258Z,96.20
2019-04-10T05:01:42.563Z,96.30
2019-04-10T05:04:11.042Z,96.50
2019-04-10T05:06:37.800Z,96.60
2019-04-10T05:09:06.795Z,96.10
2019-04-10T05:11:34.160Z,95.90
2019-04-10T05:13:59.880Z,95.60
2019-04-10T05:16:27.475Z,95.80
2019-04-10T05:18:54.130Z,95.70
2019-04-10T05:21:21.297Z,95.50
2019-04-10T05:23:47.659Z,95.50
2019-04-10T05:26:14.591Z,95.30
2019-04-10T05:28:41.547Z,96.00
2019-04-10T05:31:08.732Z,95.90
2019-04-10T05:33:36.611Z,95.40
2019-04-10T05:36:02.405Z,95.40
2019-04-10T05:38:29.345Z,95.40
2019-04-10T05:40:57.156Z,95.30
2019-04-10T05:43:24.017Z,95.30
2019-04-10T05:45:50.696Z,95.30
2019-04-10T05:48:17.425Z,95.30
2019-04-10T05:50:53.911Z,95.80
2019-04-10T05:53:11.946Z,95.70
2019-04-10T05:55:38.544Z,95.60
2019-04-10T05:58:05.082Z,95.20
2019-04-10T06:00:32.657Z,95.10
2019-04-10T06:02:58.748Z,95.20
2019-04-10T06:05:26.467Z,95.00
2019-04-10T06:07:53.849Z,94.70
2019-04-10T06:10:19.766Z,94.70
2019-04-10T06:12:46.787Z,94.50
2019-04-10T06:15:14.718Z,94.40
2019-04-10T06:17:40.716Z,94.40
2019-04-10T06:20:07.539Z,94.30
2019-04-10T06:22:34.757Z,94.10
2019-04-10T06:25:01.450Z,94.00
2019-04-10T06:27:28.396Z,93.90
2019-04-10T06:29:55.361Z,94.00
2019-04-10T06:32:22.312Z,93.80
2019-04-10T06:34:50.191Z,93.90
2019-04-10T06:37:16.227Z,94.00
2019-04-10T06:39:44.505Z,94.00
2019-04-10T06:42:10.094Z,94.10
2019-04-10T06:44:37.039Z,94.10
2019-04-10T06:47:04.224Z,94.00
2019-04-10T06:49:31.128Z,93.80
2019-04-10T06:51:57.867Z,94.60
2019-04-10T06:54:24.809Z,94.00
2019-04-10T06:56:52.511Z,93.60
2019-04-10T06:59:18.774Z,93.30
2019-04-10T07:01:51.378Z,93.30
2019-04-10T07:04:13.489Z,93.30
2019-04-10T07:06:52.871Z,93.40
2019-04-10T07:09:07.588Z,93.00
2019-04-10T07:11:34.510Z,93.20
2019-04-10T07:14:01.561Z,93.00
2019-04-10T07:16:31.064Z,93.00
2019-04-10T07:18:54.714Z,92.80
2019-04-10T07:21:22.197Z,92.90
2019-04-10T07:23:49.004Z,93.20
2019-04-10T07:26:25.604Z,93.00
2019-04-10T07:28:45.650Z,92.70
2019-04-10T07:31:10.464Z,92.80
2019-04-10T07:33:37.051Z,93.30
2019-04-10T07:36:07.631Z,93.30
2019-04-10T07:38:30.908Z,93.00
2019-04-10T07:40:57.056Z,93.30
2019-04-10T07:43:27.205Z,93.20
2019-04-10T07:45:50.936Z,93.00
2019-04-10T07:48:18.463Z,93.00
2019-04-10T07:50:46.984Z,93.00
2019-04-10T07:53:12.560Z,92.90
2019-04-10T07:55:39.739Z,93.10
2019-04-10T07:58:06.807Z,92.70
2019-04-10T08:00:32.606Z,92.60
2019-04-10T08:02:59.580Z,92.30
2019-04-10T08:05:27.191Z,92.80
2019-04-10T08:07:55.964Z,92.80
2019-04-10T08:10:21.170Z,91.90
2019-04-10T08:12:53.059Z,92.30
2019-04-10T08:15:14.788Z,92.00
2019-04-10T08:17:41.724Z,92.20
2019-04-10T08:20:09.875Z,92.20
2019-04-10T08:22:35.645Z,92.30
2019-04-10T08:25:02.605Z,92.00
2019-04-10T08:27:29.911Z,91.80
2019-04-10T08:29:56.912Z,91.70
2019-04-10T08:32:23.707Z,91.90
2019-04-10T08:34:51.309Z,91.90
2019-04-10T08:37:17.395Z,91.50
2019-04-10T08:39:47.323Z,91.60
2019-04-10T08:42:11.227Z,91.40
2019-04-10T08:44:38.352Z,91.20
2019-04-10T08:47:05.083Z,91.70
2019-04-10T08:49:32.651Z,91.70
2019-04-10T08:51:59.865Z,91.30
2019-04-10T08:54:25.971Z,91.40
2019-04-10T08:56:52.860Z,90.90
2019-04-10T08:59:19.808Z,90.60
2019-04-10T09:01:47.249Z,90.40
2019-04-10T09:04:14.615Z,90.30
2019-04-10T09:06:41.626Z,90.30
2019-04-10T09:09:08.072Z,89.70
2019-04-10T09:11:35.426Z,88.80
2019-04-10T09:14:03.084Z,87.50
2019-04-10T09:16:28.938Z,85.70
2019-04-10T09:18:55.872Z,86.90
2019-04-10T09:21:23.717Z,86.50
2019-04-10T09:23:53.073Z,86.90
2019-04-10T09:26:16.716Z,86.10
2019-04-10T09:28:43.656Z,85.10
2019-04-10T09:31:10.583Z,85.10
2019-04-10T09:33:37.532Z,84.40
2019-04-10T09:36:09.033Z,84.30
2019-04-10T09:38:35.202Z,84.40
2019-04-10T09:41:02.176Z,83.70
2019-04-10T09:43:29.638Z,84.90
2019-04-10T09:45:56.216Z,83.70
2019-04-10T09:48:24.209Z,83.10
2019-04-10T09:50:50.290Z,82.90
2019-04-10T09:53:17.225Z,80.50
2019-04-10T09:55:44.779Z,80.70
2019-04-10T09:58:11.091Z,80.30
2019-04-10T10:00:38.231Z,80.50
2019-04-10T10:03:05.554Z,80.10
2019-04-10T10:05:32.706Z,78.00
2019-04-10T10:08:00.078Z,78.90
2019-04-10T10:10:26.539Z,79.70
2019-04-10T10:12:53.737Z,78.50
2019-04-10T10:15:21.084Z,78.80
2019-04-10T10:17:47.386Z,77.70
2019-04-10T10:20:15.368Z,76.90
2019-04-10T10:22:41.643Z,77.20
2019-04-10T10:25:08.576Z,77.20
2019-04-10T10:27:35.540Z,78.70
2019-04-10T10:30:02.529Z,78.00
2019-04-10T10:32:29.502Z,77.60
2019-04-10T10:34:56.964Z,77.50
2019-04-10T10:37:24.166Z,77.50
2019-04-10T10:39:50.849Z,76.70
2019-04-10T10:42:17.792Z,76.60
2019-04-10T10:44:45.886Z,76.00
2019-04-10T10:47:11.814Z,74.20
2019-04-10T10:49:38.617Z,75.70
2019-04-10T10:52:05.547Z,74.80
2019-04-10T10:54:32.682Z,74.20
2019-04-10T10:57:00.551Z,74.00
2019-04-10T10:59:27.363Z,73.30
2019-04-10T11:01:53.882Z,73.50
2019-04-10T11:04:21.082Z,72.00
2019-04-10T11:06:54.199Z,73.60
2019-04-10T11:09:15.623Z,72.50
2019-04-10T11:11:41.927Z,71.90
2019-04-10T11:14:08.943Z,71.40
2019-04-10T11:16:36.613Z,72.10
2019-04-10T11:19:02.836Z,72.10
2019-04-10T11:21:30.054Z,71.40
2019-04-10T11:23:56.727Z,71.90
2019-04-10T11:26:24.151Z,70.90
2019-04-10T11:28:50.608Z,72.30
2019-04-10T11:31:17.616Z,71.20
2019-04-10T11:33:49.867Z,71.30
2019-04-10T11:36:12.440Z,72.30
2019-04-10T11:38:39.811Z,71.80
2019-04-10T11:41:07.241Z,72.00
2019-04-10T11:43:33.630Z,71.40
2019-04-10T11:46:02.627Z,70.40
2019-04-10T11:48:29.147Z,69.10
2019-04-10T11:50:55.902Z,68.80
2019-04-10T11:53:21.499Z,69.60
2019-04-10T11:55:50.980Z,71.40
2019-04-10T11:58:17.624Z,71.50
2019-04-10T12:00:51.018Z,70.80
2019-04-10T12:03:09.811Z,70.60
2019-04-10T12:05:36.634Z,71.90
2019-04-10T12:12:57.626Z,71.60
2019-04-10T12:15:24.585Z,71.10
2019-04-10T12:17:52.010Z,70.90
2019-04-10T12:20:18.820Z,70.20
2019-04-10T12:22:46.188Z,70.20
2019-04-10T12:25:12.488Z,69.50
2019-04-10T12:27:39.443Z,69.90
2019-04-10T12:30:07.138Z,70.50
2019-04-10T12:32:34.086Z,70.40
2019-04-10T12:35:01.020Z,70.00
2019-04-10T12:37:27.966Z,70.20
2019-04-10T12:39:55.153Z,70.70
2019-04-10T12:42:21.926Z,69.80
2019-04-10T12:44:49.313Z,70.00
2019-04-10T12:47:15.799Z,69.30
2019-04-10T12:49:43.554Z,70.40
2019-04-10T12:52:10.146Z,70.00
2019-04-10T12:54:37.854Z,69.10
2019-04-10T12:57:04.299Z,67.50
2019-04-10T12:59:31.150Z,69.30
2019-04-10T13:01:57.520Z,69.10
2019-04-10T13:04:24.707Z,69.50
2019-04-10T13:06:52.668Z,68.70
2019-04-10T13:09:18.365Z,70.00
2019-04-10T13:11:45.283Z,70.60
2019-04-10T13:14:14.764Z,69.40
2019-04-10T13:16:41.367Z,67.60
2019-04-10T13:19:08.967Z,68.80
2019-04-10T13:21:34.864Z,68.80
2019-04-10T13:24:01.788Z,66.80
2019-04-10T13:26:28.723Z,68.60
2019-04-10T13:28:56.092Z,69.40
2019-04-10T13:31:23.494Z,68.70
2019-04-10T13:33:49.615Z,69.00
2019-04-10T13:36:17.499Z,69.10
2019-04-10T13:38:44.363Z,68.60
2019-04-10T13:41:10.446Z,67.30
2019-04-10T13:43:38.067Z,66.50
2019-04-10T13:46:04.662Z,68.00
2019-04-10T13:48:31.417Z,66.30
2019-04-10T13:50:59.050Z,65.20
2019-04-10T13:53:26.012Z,66.40
2019-04-10T13:55:52.673Z,66.80
2019-04-10T13:58:19.298Z,67.60
2019-04-10T14:00:47.035Z,70.30
2019-04-10T14:03:12.900Z,71.40
2019-04-10T14:05:41.085Z,69.40
2019-04-10T14:08:06.796Z,66.40
2019-04-10T14:10:33.758Z,65.80
2019-04-10T14:13:00.705Z,65.10
2019-04-10T14:15:30.207Z,66.90
2019-04-10T14:17:54.919Z,67.00
2019-04-10T14:20:21.864Z,67.50
2019-04-10T14:22:57.904Z,66.30
2019-04-10T14:25:45.224Z,65.80
2019-04-10T14:28:13.088Z,66.20
2019-04-10T14:30:39.745Z,63.40
2019-04-10T14:33:07.060Z,65.60
2019-04-10T14:35:33.577Z,63.90
2019-04-10T14:38:01.034Z,64.70
2019-04-10T14:40:26.916Z,62.30
2019-04-10T14:42:53.839Z,62.30
2019-04-10T14:45:21.477Z,65.20
2019-04-10T14:47:47.703Z,62.80
2019-04-10T14:50:15.634Z,64.40
2019-04-10T14:52:41.576Z,63.10
2019-04-10T14:55:08.517Z,66.00
2019-04-10T14:57:35.443Z,65.70
2019-04-10T15:00:02.469Z,63.20
2019-04-10T15:02:30.568Z,64.10
2019-04-10T15:04:57.377Z,64.00
2019-04-10T15:07:23.305Z,64.40
2019-04-10T15:09:50.248Z,65.00
2019-04-10T15:12:18.457Z,63.80
2019-04-10T15:14:45.775Z,61.80
2019-04-10T15:17:12.661Z,63.90
2019-04-10T15:19:39.117Z,62.30
2019-04-10T15:22:07.395Z,61.50
2019-04-10T15:24:33.662Z,61.70
2019-04-10T15:27:00.659Z,62.10
2019-04-10T15:29:28.076Z,63.10
2019-04-10T15:31:55.757Z,60.20
2019-04-10T15:34:22.546Z,60.00
2019-04-10T15:36:49.358Z,61.40
2019-04-10T15:39:15.612Z,61.60
2019-04-10T15:41:43.447Z,60.50
2019-04-10T15:44:09.901Z,61.70
2019-04-10T15:46:37.206Z,62.10
2019-04-10T15:49:03.675Z,64.00
2019-04-10T15:51:30.500Z,63.70
2019-04-10T15:53:57.480Z,62.10
2019-04-10T15:56:25.548Z,61.40
2019-04-10T15:58:52.134Z,61.30
2019-04-10T16:01:18.789Z,62.50
2019-04-10T16:03:45.814Z,60.10
2019-04-10T16:06:13.278Z,59.70
2019-04-10T16:08:40.629Z,59.60
2019-04-10T16:11:17.735Z,60.30
2019-04-10T16:13:46.763Z,61.20
2019-04-10T16:16:33.967Z,61.50
2019-04-10T16:19:10.039Z,59.00
2019-04-10T16:21:37.982Z,60.80
2019-04-10T16:24:06.895Z,60.90
2019-04-10T16:26:33.859Z,60.40
2019-04-10T16:29:01.779Z,63.00
2019-04-10T16:31:27.737Z,61.30
2019-04-10T16:33:54.677Z,61.60
2019-04-10T16:36:21.575Z,60.80
2019-04-10T16:38:49.143Z,63.20
2019-04-10T16:41:15.485Z,62.90
2019-04-10T16:43:42.450Z,64.40
2019-04-10T16:46:09.369Z,64.80
2019-04-10T16:48:36.329Z,62.60
2019-04-10T16:51:03.723Z,62.60
2019-04-10T16:53:30.235Z,62.10
2019-04-10T16:55:57.179Z,62.70
2019-04-10T16:58:25.581Z,63.30
2019-04-10T17:00:52.033Z,63.00
2019-04-10T17:03:19.775Z,65.00
2019-04-10T17:05:46.069Z,64.30
2019-04-10T17:08:13.967Z,65.40
2019-04-10T17:10:40.773Z,65.40
2019-04-10T17:13:07.418Z,65.40
2019-04-10T17:15:34.369Z,65.80
2019-04-10T17:18:01.010Z,65.70
2019-04-10T17:20:28.749Z,65.80
2019-04-10T17:22:56.219Z,65.70
2019-04-10T17:25:22.194Z,64.90
2019-04-10T17:27:49.931Z,66.20
2019-04-10T17:30:15.901Z,63.90
2019-04-10T17:32:42.930Z,65.70
2019-04-10T17:35:09.893Z,65.10
2019-04-10T17:37:37.993Z,66.70
2019-04-10T17:40:06.165Z,64.40
2019-04-10T17:42:32.773Z,66.10
2019-04-10T17:45:00.276Z,65.30
2019-04-10T17:47:27.029Z,65.10
2019-04-10T17:49:53.953Z,65.90
2019-04-10T17:52:20.975Z,65.50
2019-04-10T17:54:47.610Z,65.00
2019-04-10T17:57:14.823Z,65.30
2019-04-10T17:59:42.502Z,65.90
2019-04-10T18:02:11.587Z,65.20
2019-04-10T18:04:37.939Z,65.70
2019-04-10T18:07:04.413Z,65.20
2019-04-10T18:09:32.624Z,65.30
2019-04-10T18:12:00.792Z,65.30
2019-04-10T18:14:25.229Z,66.20
2019-04-10T18:16:52.202Z,66.60
2019-04-10T18:19:19.232Z,66.80
2019-04-10T18:21:47.860Z,66.50
2019-04-10T18:24:14.440Z,65.10
2019-04-10T18:26:41.620Z,67.60
2019-04-10T18:29:08.349Z,67.00
2019-04-10T18:31:35.320Z,66.00
2019-04-10T18:34:02.920Z,66.70
2019-04-10T18:36:29.865Z,64.80
2019-04-10T18:38:56.232Z,65.20
2019-04-10T18:41:24.141Z,65.10
2019-04-10T18:43:50.853Z,66.60
2019-04-10T18:46:19.499Z,66.20
2019-04-10T18:48:45.683Z,67.30
2019-04-10T18:51:12.455Z,66.60
2019-04-10T18:53:39.288Z,65.70
2019-04-10T18:56:07.046Z,66.00
2019-04-10T18:58:40.141Z,66.80
2019-04-10T19:01:21.233Z,67.80
2019-04-10T19:03:59.688Z,66.60
2019-04-10T19:06:25.364Z,67.30
2019-04-10T19:09:04.986Z,68.70
2019-04-10T19:11:24.461Z,68.30
2019-04-10T19:13:46.716Z,70.70
2019-04-10T19:16:13.237Z,70.40
2019-04-10T19:18:40.272Z,70.60
2019-04-10T19:21:07.251Z,70.80
2019-04-10T19:23:36.876Z,70.70
2019-04-10T19:26:03.099Z,70.90
2019-04-10T19:28:35.045Z,71.60
2019-04-10T19:31:08.802Z,71.80
2019-04-10T19:33:27.654Z,74.10
2019-04-10T19:35:55.193Z,73.70
2019-04-10T19:38:21.632Z,72.30
2019-04-10T19:40:48.886Z,73.30
2019-04-10T19:43:15.918Z,73.30
2019-04-10T19:45:43.785Z,72.40
2019-04-10T19:48:10.755Z,73.50
2019-04-10T19:50:37.317Z,74.00
2019-04-10T19:53:04.762Z,74.30
2019-04-10T19:55:31.625Z,72.90
2019-04-10T19:57:58.139Z,72.20
2019-04-10T20:00:30.312Z,71.00
2019-04-10T20:02:57.290Z,69.40
2019-04-10T20:05:23.427Z,70.50
2019-04-10T20:07:51.323Z,69.70
2019-04-10T20:10:17.143Z,68.90
2019-04-10T20:12:44.689Z,66.80
2019-04-10T20:15:12.099Z,66.50
2019-04-10T20:17:37.971Z,66.70
2019-04-10T20:20:04.956Z,66.20
2019-04-10T20:22:32.738Z,67.30
2019-04-10T20:24:59.805Z,68.00
2019-04-10T20:27:26.273Z,66.30
2019-04-10T20:29:53.233Z,65.00
2019-04-10T20:32:20.232Z,64.20
2019-04-10T20:34:47.527Z,63.20
2019-04-10T20:37:14.509Z,62.60
2019-04-10T20:40:01.637Z,63.40
2019-04-10T20:42:51.685Z,62.80
2019-04-10T20:45:18.659Z,62.30
2019-04-10T20:47:46.823Z,61.90
2019-04-10T20:50:12.909Z,63.10
2019-04-10T20:52:41.038Z,63.20
2019-04-10T20:55:06.833Z,66.30
2019-04-10T20:57:33.780Z,61.40
2019-04-10T21:00:01.744Z,60.70
2019-04-10T21:02:28.582Z,59.70
2019-04-10T21:05:02.367Z,59.90
2019-04-10T21:07:23.405Z,59.60
2019-04-10T21:09:50.268Z,59.40
2019-04-10T21:12:19.290Z,59.00
2019-04-10T21:14:43.907Z,60.10
2019-04-10T21:17:10.227Z,60.30
2019-04-10T21:19:37.595Z,59.90
2019-04-10T21:22:04.162Z,60.30
2019-04-10T21:24:31.562Z,60.20
2019-04-10T21:26:59.056Z,60.00
2019-04-10T21:29:31.977Z,61.50
2019-04-10T21:32:05.199Z,60.80
2019-04-10T21:34:35.555Z,61.50
2019-04-10T21:37:01.904Z,62.30
2019-04-10T21:39:36.652Z,62.30
2019-04-10T21:42:16.002Z,61.50
2019-04-10T21:44:31.016Z,62.60
2019-04-10T21:46:57.544Z,60.70
2019-04-10T21:49:24.558Z,61.40
2019-04-10T21:51:51.654Z,60.50
2019-04-10T21:54:18.573Z,60.60
2019-04-10T21:56:45.414Z,60.40
2019-04-10T21:59:13.390Z,60.00
2019-04-10T22:01:40.258Z,60.60
2019-04-10T22:04:06.403Z,60.70
2019-04-10T22:06:45.262Z,60.80
2019-04-10T22:09:18.673Z,61.80
2019-04-10T22:11:45.617Z,62.80
2019-04-10T22:14:12.988Z,62.20
2019-04-10T22:16:39.228Z,62.00
2019-04-10T22:19:06.183Z,62.30
2019-04-10T22:21:33.363Z,62.50
2019-04-10T22:24:00.957Z,61.40
2019-04-10T22:26:27.676Z,61.10
2019-04-10T22:28:56.820Z,62.40
2019-04-10T22:31:23.779Z,61.40
2019-04-10T22:33:50.235Z,60.70
2019-04-10T22:36:17.241Z,60.50
2019-04-10T22:38:44.213Z,61.40
2019-04-10T22:41:21.726Z,61.40
2019-04-10T22:43:38.679Z,60.80
2019-04-10T22:46:05.041Z,60.70
2019-04-10T22:48:32.909Z,61.20
2019-04-10T22:50:59.153Z,62.20
2019-04-10T22:53:26.080Z,62.20
2019-04-10T22:55:52.999Z,62.90
2019-04-10T22:58:21.157Z,62.20
2019-04-10T23:00:48.321Z,62.40
2019-04-10T23:03:13.869Z,63.30
2019-04-10T23:05:41.233Z,62.50
2019-04-10T23:08:09.364Z,63.50
2019-04-10T23:10:35.311Z,63.00
2019-04-10T23:13:05.332Z,63.90
2019-04-10T23:15:29.025Z,64.70
2019-04-10T23:17:57.118Z,63.20
2019-04-10T23:20:23.786Z,62.60
2019-04-10T23:22:50.690Z,62.10
2019-04-10T23:25:16.836Z,62.70
2019-04-10T23:27:44.102Z,62.50
2019-04-10T23:30:14.914Z,63.00
2019-04-10T23:32:41.589Z,63.80
2019-04-10T23:35:10.110Z,63.40
2019-04-10T23:37:36.552Z,63.00
2019-04-10T23:40:03.212Z,62.10
2019-04-10T23:42:30.361Z,61.80
2019-04-10T23:44:57.504Z,63.20
2019-04-10T23:47:24.290Z,62.70
2019-04-10T23:49:51.960Z,63.90
2019-04-10T23:52:17.973Z,63.40
2019-04-10T23:54:45.806Z,63.40
2019-04-10T23:57:11.819Z,63.70
2019-04-10T23:59:39.165Z,63.40
